createdAt,value
2017-11-16T00:00:17.615Z,4.30
2017-11-16T00:02:45.171Z,4.30
2017-11-16T00:05:12.706Z,4.30
2017-11-16T00:07:40.250Z,4.30
2017-11-16T00:10:07.778Z,4.30
2017-11-16T00:12:36.124Z,4.40
2017-11-16T00:15:04.418Z,4.40
2017-11-16T00:17:31.961Z,4.40
2017-11-16T00:19:59.506Z,4.40
2017-11-16T00:22:27.039Z,4.40
2017-11-16T00:24:55.356Z,4.30
2017-11-16T00:27:22.887Z,4.30
2017-11-16T00:29:50.432Z,4.30
2017-11-16T00:32:18.723Z,4.30
2017-11-16T00:34:46.268Z,4.30
2017-11-16T00:37:14.559Z,4.30
2017-11-16T00:39:42.118Z,4.30
2017-11-16T00:42:09.652Z,4.40
2017-11-16T00:44:37.178Z,4.40
2017-11-16T00:47:04.727Z,4.40
2017-11-16T00:49:32.261Z,4.30
2017-11-16T00:51:59.810Z,4.30
2017-11-16T00:54:27.360Z,4.40
2017-11-16T00:56:54.918Z,4.30
2017-11-16T00:59:23.215Z,4.30
2017-11-16T01:01:51.533Z,4.20
2017-11-16T01:04:19.073Z,4.20
2017-11-16T01:06:47.470Z,4.20
2017-11-16T01:09:14.999Z,4.30
2017-11-16T01:11:43.300Z,4.20
2017-11-16T01:14:10.843Z,4.20
2017-11-16T01:16:39.136Z,4.30
2017-11-16T01:19:06.693Z,4.30
2017-11-16T01:21:34.225Z,4.20
2017-11-16T01:24:02.543Z,4.40
2017-11-16T01:26:30.079Z,4.30
2017-11-16T01:28:58.414Z,4.40
2017-11-16T01:31:25.949Z,4.40
2017-11-16T01:33:53.480Z,4.40
2017-11-16T01:36:21.795Z,4.30
2017-11-16T01:38:49.319Z,4.30
2017-11-16T01:41:17.629Z,4.10
2017-11-16T01:43:45.159Z,4.10
2017-11-16T01:46:13.474Z,4.10
2017-11-16T01:48:41.010Z,4.10
2017-11-16T01:51:08.558Z,4.10
2017-11-16T01:53:36.896Z,4.00
2017-11-16T01:56:04.457Z,4.00
2017-11-16T01:58:31.991Z,4.00
2017-11-16T02:00:59.547Z,4.10
2017-11-16T02:03:27.079Z,4.10
2017-11-16T02:05:55.411Z,4.10
2017-11-16T02:08:22.935Z,4.10
2017-11-16T02:10:50.468Z,4.00
2017-11-16T02:13:18.026Z,4.00
2017-11-16T02:15:45.558Z,3.90
2017-11-16T02:18:13.126Z,4.00
2017-11-16T02:20:40.657Z,4.00
2017-11-16T02:23:08.208Z,3.90
2017-11-16T02:25:35.745Z,4.00
2017-11-16T02:28:04.061Z,3.90
2017-11-16T02:30:31.598Z,3.90
2017-11-16T02:32:59.158Z,3.90
2017-11-16T02:35:26.686Z,3.80
2017-11-16T02:37:54.231Z,3.80
2017-11-16T02:40:21.777Z,3.90
2017-11-16T02:42:49.313Z,3.90
2017-11-16T02:45:16.870Z,3.90
2017-11-16T02:47:44.408Z,3.80
2017-11-16T02:50:12.723Z,3.90
2017-11-16T02:52:40.257Z,3.90
2017-11-16T02:55:08.575Z,3.80
2017-11-16T02:57:36.105Z,3.80
2017-11-16T03:00:03.668Z,3.80
2017-11-16T03:02:31.213Z,3.70
2017-11-16T03:04:58.771Z,3.70
2017-11-16T03:07:27.072Z,3.70
2017-11-16T03:09:54.632Z,3.70
2017-11-16T03:12:22.164Z,3.60
2017-11-16T03:14:50.870Z,3.60
2017-11-16T03:17:18.416Z,3.60
2017-11-16T03:19:46.753Z,3.60
2017-11-16T03:22:14.303Z,3.60
2017-11-16T03:24:41.865Z,3.60
2017-11-16T03:27:09.400Z,3.60
2017-11-16T03:29:38.504Z,3.60
2017-11-16T03:32:06.026Z,3.60
2017-11-16T03:34:33.563Z,3.60
2017-11-16T03:37:01.117Z,3.50
2017-11-16T03:39:28.657Z,3.50
2017-11-16T03:41:56.214Z,3.40
2017-11-16T03:44:24.517Z,3.40
2017-11-16T03:46:52.063Z,3.30
2017-11-16T03:49:19.610Z,3.30
2017-11-16T03:51:47.208Z,3.30
2017-11-16T03:54:14.740Z,3.30
2017-11-16T03:56:43.057Z,3.30
2017-11-16T03:59:10.600Z,3.30
2017-11-16T04:01:38.160Z,3.30
2017-11-16T04:04:05.698Z,3.30
2017-11-16T04:06:33.997Z,3.30
2017-11-16T04:09:01.550Z,3.30
2017-11-16T04:11:29.127Z,3.30
2017-11-16T04:13:57.251Z,3.30
2017-11-16T04:16:24.785Z,3.30
2017-11-16T04:18:52.340Z,3.30
2017-11-16T04:21:19.869Z,3.20
2017-11-16T04:23:47.417Z,3.30
2017-11-16T04:26:15.709Z,3.30
2017-11-16T04:28:43.260Z,3.30
2017-11-16T04:31:11.566Z,3.20
2017-11-16T04:33:39.115Z,3.20
2017-11-16T04:36:06.648Z,3.20
2017-11-16T04:38:34.984Z,3.30
2017-11-16T04:41:02.516Z,3.30
2017-11-16T04:43:30.053Z,3.30
2017-11-16T04:45:58.362Z,3.20
2017-11-16T04:48:25.895Z,3.20
2017-11-16T04:50:53.443Z,3.10
2017-11-16T04:53:20.978Z,3.00
2017-11-16T04:55:48.532Z,3.00
2017-11-16T04:58:16.059Z,3.00
2017-11-16T05:00:44.382Z,3.00
2017-11-16T05:03:11.912Z,3.00
2017-11-16T05:05:39.458Z,3.00
2017-11-16T05:08:07.750Z,3.10
2017-11-16T05:10:35.316Z,3.00
2017-11-16T05:13:02.853Z,3.00
2017-11-16T05:15:31.160Z,3.10
2017-11-16T05:17:58.711Z,3.10
2017-11-16T05:20:26.247Z,3.00
2017-11-16T05:22:54.566Z,3.00
2017-11-16T05:25:22.106Z,3.00
2017-11-16T05:27:49.672Z,3.00
2017-11-16T05:30:17.197Z,3.00
2017-11-16T05:32:45.497Z,3.10
2017-11-16T05:35:13.048Z,3.00
2017-11-16T05:37:41.344Z,3.10
2017-11-16T05:40:08.893Z,3.00
2017-11-16T05:42:36.423Z,3.00
2017-11-16T05:45:03.979Z,3.00
2017-11-16T05:47:31.508Z,3.10
2017-11-16T05:49:59.074Z,3.10
2017-11-16T05:52:26.597Z,3.00
2017-11-16T05:54:54.142Z,3.10
2017-11-16T05:57:21.680Z,3.00
2017-11-16T05:59:49.227Z,3.10
2017-11-16T06:02:16.762Z,3.10
2017-11-16T06:04:44.353Z,3.10
2017-11-16T06:07:11.884Z,3.10
2017-11-16T06:09:39.416Z,3.10
2017-11-16T06:12:06.972Z,3.10
2017-11-16T06:14:35.276Z,3.00
2017-11-16T06:17:02.819Z,3.00
2017-11-16T06:19:30.355Z,3.00
2017-11-16T06:21:57.899Z,3.10
2017-11-16T06:24:25.432Z,3.10
2017-11-16T06:26:52.981Z,3.10
2017-11-16T06:29:20.511Z,3.10
2017-11-16T06:31:48.827Z,3.10
2017-11-16T06:34:16.352Z,3.10
2017-11-16T06:36:45.353Z,3.20
2017-11-16T06:39:12.877Z,3.20
2017-11-16T06:41:40.433Z,3.20
2017-11-16T06:44:07.971Z,3.20
2017-11-16T06:46:35.516Z,3.10
2017-11-16T06:49:03.053Z,3.10
2017-11-16T06:51:31.368Z,3.20
2017-11-16T06:53:58.898Z,3.20
2017-11-16T06:56:26.442Z,3.20
2017-11-16T06:58:54.736Z,3.30
2017-11-16T07:01:23.042Z,3.30
2017-11-16T07:03:50.567Z,3.30
2017-11-16T07:06:18.885Z,3.30
2017-11-16T07:08:46.412Z,3.30
2017-11-16T07:11:14.719Z,3.30
2017-11-16T07:13:42.248Z,3.30
2017-11-16T07:16:09.803Z,3.30
2017-11-16T07:18:37.336Z,3.30
2017-11-16T07:21:04.888Z,3.40
2017-11-16T07:23:32.427Z,3.40
2017-11-16T07:25:59.969Z,3.40
2017-11-16T07:28:28.268Z,3.40
2017-11-16T07:30:55.823Z,3.40
2017-11-16T07:33:23.364Z,3.50
2017-11-16T07:35:51.683Z,3.50
2017-11-16T07:38:19.215Z,3.50
2017-11-16T07:40:50.832Z,3.50
2017-11-16T07:43:18.368Z,3.50
2017-11-16T07:45:45.924Z,3.50
2017-11-16T07:48:13.446Z,3.50
2017-11-16T07:50:40.992Z,3.50
2017-11-16T07:53:08.523Z,3.50
2017-11-16T07:55:36.098Z,3.60
2017-11-16T07:58:03.628Z,3.50
2017-11-16T08:00:31.157Z,3.40
2017-11-16T08:02:59.471Z,3.40
2017-11-16T08:05:27.008Z,3.40
2017-11-16T08:07:55.332Z,3.50
2017-11-16T08:10:22.862Z,3.50
2017-11-16T08:12:50.417Z,3.50
2017-11-16T08:15:18.716Z,3.50
2017-11-16T08:17:46.262Z,3.50
2017-11-16T08:20:14.559Z,3.50
2017-11-16T08:22:42.100Z,3.50
2017-11-16T08:25:10.394Z,3.50
2017-11-16T08:27:37.954Z,3.50
2017-11-16T08:30:06.253Z,3.60
2017-11-16T08:32:33.803Z,3.60
2017-11-16T08:35:01.337Z,3.70
2017-11-16T08:37:29.647Z,3.60
2017-11-16T08:39:57.188Z,3.60
2017-11-16T08:42:25.502Z,3.70
2017-11-16T08:44:53.027Z,3.60
2017-11-16T08:47:21.338Z,3.70
2017-11-16T08:49:48.866Z,3.70
2017-11-16T08:52:17.186Z,3.80
2017-11-16T08:54:44.714Z,3.70
2017-11-16T08:57:13.029Z,3.80
2017-11-16T08:59:40.561Z,3.80
2017-11-16T09:02:08.864Z,3.70
2017-11-16T09:04:36.395Z,3.70
2017-11-16T09:07:04.735Z,3.80
2017-11-16T09:09:32.255Z,3.80
2017-11-16T09:11:59.816Z,3.80
2017-11-16T09:14:27.350Z,3.80
2017-11-16T09:16:55.669Z,3.90
2017-11-16T09:19:23.204Z,3.90
2017-11-16T09:21:51.508Z,4.00
2017-11-16T09:24:19.041Z,4.00
2017-11-16T09:26:47.365Z,4.10
2017-11-16T09:29:14.886Z,4.00
2017-11-16T09:31:43.191Z,4.10
2017-11-16T09:34:10.718Z,4.10
2017-11-16T09:36:39.037Z,4.10
2017-11-16T09:39:06.557Z,4.10
2017-11-16T09:41:34.101Z,4.20
2017-11-16T09:44:01.648Z,4.20
2017-11-16T09:46:29.175Z,4.30
2017-11-16T09:48:56.766Z,4.30
2017-11-16T09:51:24.302Z,4.30
2017-11-16T09:53:51.847Z,4.30
2017-11-16T09:56:19.371Z,4.20
2017-11-16T09:58:46.921Z,4.20
2017-11-16T10:01:14.444Z,4.10
2017-11-16T10:03:41.987Z,4.10
2017-11-16T10:06:09.521Z,4.10
2017-11-16T10:08:37.068Z,4.10
2017-11-16T10:11:04.593Z,4.10
2017-11-16T10:13:32.139Z,4.10
2017-11-16T10:16:00.431Z,4.30
2017-11-16T10:18:27.998Z,4.30
2017-11-16T10:20:55.527Z,4.30
2017-11-16T10:23:23.841Z,4.40
2017-11-16T10:25:51.396Z,4.40
2017-11-16T10:28:18.926Z,4.40
2017-11-16T10:30:46.471Z,4.50
2017-11-16T10:33:13.988Z,4.30
2017-11-16T10:35:41.537Z,4.20
2017-11-16T10:38:09.055Z,4.20
2017-11-16T10:40:36.595Z,4.20
2017-11-16T10:43:04.880Z,4.30
2017-11-16T10:45:32.423Z,4.30
2017-11-16T10:47:59.950Z,4.40
2017-11-16T10:50:28.265Z,4.50
2017-11-16T10:52:55.789Z,4.50
2017-11-16T10:55:24.095Z,4.50
2017-11-16T10:57:51.611Z,4.50
2017-11-16T11:00:19.152Z,4.60
2017-11-16T11:02:46.678Z,4.60
2017-11-16T11:05:14.214Z,4.60
2017-11-16T11:07:42.502Z,4.50
2017-11-16T11:10:10.812Z,4.50
2017-11-16T11:12:38.339Z,4.50
2017-11-16T11:15:06.645Z,4.60
2017-11-16T11:17:34.163Z,4.60
2017-11-16T11:20:01.699Z,4.60
2017-11-16T11:22:29.226Z,4.70
2017-11-16T11:24:56.755Z,4.70
2017-11-16T11:27:25.043Z,4.70
2017-11-16T11:29:53.353Z,4.70
2017-11-16T11:32:20.873Z,4.70
2017-11-16T11:34:49.180Z,4.60
2017-11-16T11:37:16.704Z,4.60
2017-11-16T11:39:44.239Z,4.60
2017-11-16T11:42:11.822Z,4.50
2017-11-16T11:44:39.329Z,4.60
2017-11-16T11:47:06.869Z,4.60
2017-11-16T11:49:35.151Z,4.60
2017-11-16T11:52:03.448Z,4.60
2017-11-16T11:54:30.972Z,4.50
2017-11-16T11:56:59.279Z,4.60
2017-11-16T11:59:26.798Z,4.60
2017-11-16T12:01:55.173Z,4.60
2017-11-16T12:04:22.692Z,4.60
2017-11-16T12:06:50.233Z,4.60
2017-11-16T12:09:18.524Z,4.50
2017-11-16T12:11:46.064Z,4.50
2017-11-16T12:14:14.349Z,4.50
2017-11-16T12:16:41.889Z,4.50
2017-11-16T12:19:09.411Z,4.50
2017-11-16T12:21:36.951Z,4.50
2017-11-16T12:24:04.480Z,4.50
2017-11-16T12:26:32.026Z,4.50
2017-11-16T12:28:59.551Z,4.50
2017-11-16T12:31:27.095Z,4.60
2017-11-16T12:33:54.628Z,4.60
2017-11-16T12:36:22.159Z,4.60
2017-11-16T12:38:49.695Z,4.60
2017-11-16T12:41:17.218Z,4.60
2017-11-16T12:43:45.527Z,4.60
2017-11-16T12:46:13.058Z,4.60
2017-11-16T12:48:41.363Z,4.60
2017-11-16T12:51:08.887Z,4.50
2017-11-16T12:53:36.440Z,4.60
2017-11-16T12:56:03.957Z,4.50
2017-11-16T12:58:31.506Z,4.60
2017-11-16T13:00:59.031Z,4.50
2017-11-16T13:03:26.584Z,4.40
2017-11-16T13:05:54.108Z,4.40
2017-11-16T13:08:21.651Z,4.30
2017-11-16T13:10:49.173Z,4.30
2017-11-16T13:13:16.704Z,4.30
2017-11-16T13:15:44.290Z,4.20
2017-11-16T13:18:11.835Z,4.20
2017-11-16T13:20:39.377Z,4.30
2017-11-16T13:23:06.924Z,4.30
2017-11-16T13:25:34.452Z,4.20
2017-11-16T13:28:01.996Z,4.20
2017-11-16T13:30:29.517Z,4.10
2017-11-16T13:32:57.052Z,4.10
2017-11-16T13:35:25.334Z,4.20
2017-11-16T13:37:53.644Z,4.10
2017-11-16T13:40:21.174Z,4.10
2017-11-16T13:42:48.738Z,4.20
2017-11-16T13:45:17.032Z,4.20
2017-11-16T13:47:44.556Z,4.10
2017-11-16T13:50:12.103Z,4.10
2017-11-16T13:52:39.627Z,4.10
2017-11-16T13:55:07.166Z,4.20
2017-11-16T13:57:34.688Z,4.20
2017-11-16T14:00:02.231Z,4.20
2017-11-16T14:02:29.760Z,4.20
2017-11-16T14:04:57.300Z,4.10
2017-11-16T14:07:25.598Z,4.10
2017-11-16T14:09:53.143Z,4.10
2017-11-16T14:12:21.433Z,4.00
2017-11-16T14:14:48.996Z,4.00
2017-11-16T14:17:16.515Z,4.00
2017-11-16T14:19:44.036Z,3.90
2017-11-16T14:22:11.579Z,3.90
2017-11-16T14:24:39.118Z,3.90
2017-11-16T14:27:07.423Z,4.00
2017-11-16T14:29:34.945Z,4.00
2017-11-16T14:32:02.500Z,4.10
2017-11-16T14:34:30.019Z,4.10
2017-11-16T14:36:57.556Z,4.20
2017-11-16T14:39:25.844Z,4.20
2017-11-16T14:41:53.388Z,4.10
2017-11-16T14:44:21.670Z,4.10
2017-11-16T14:46:50.000Z,4.00
2017-11-16T14:49:17.527Z,4.00
2017-11-16T14:51:45.067Z,4.00
2017-11-16T14:54:13.376Z,4.00
2017-11-16T14:56:40.904Z,4.00
2017-11-16T14:59:09.215Z,3.90
2017-11-16T15:01:36.732Z,3.90
2017-11-16T15:04:04.287Z,3.90
2017-11-16T15:06:31.807Z,3.90
2017-11-16T15:08:59.357Z,3.90
2017-11-16T15:11:26.893Z,3.90
2017-11-16T15:13:55.200Z,3.80
2017-11-16T15:16:22.728Z,3.80
2017-11-16T15:18:50.282Z,3.80
2017-11-16T15:21:17.810Z,3.80
2017-11-16T15:23:45.381Z,3.80
2017-11-16T15:26:12.930Z,3.80
2017-11-16T15:28:40.463Z,3.80
2017-11-16T15:31:08.008Z,3.80
2017-11-16T15:33:36.299Z,3.80
2017-11-16T15:36:04.609Z,3.80
2017-11-16T15:38:32.128Z,3.70
2017-11-16T15:41:00.436Z,3.70
2017-11-16T15:43:27.960Z,3.70
2017-11-16T15:45:55.523Z,3.70
2017-11-16T15:48:23.833Z,3.70
2017-11-16T15:50:51.363Z,3.60
2017-11-16T15:53:18.911Z,3.70
2017-11-16T15:55:46.438Z,3.70
2017-11-16T15:58:13.992Z,3.70
2017-11-16T16:00:41.521Z,3.70
2017-11-16T16:03:09.844Z,3.70
2017-11-16T16:05:37.367Z,3.60
2017-11-16T16:08:05.678Z,3.50
2017-11-16T16:10:33.200Z,3.50
2017-11-16T16:13:01.541Z,3.50
2017-11-16T16:15:30.590Z,3.40
2017-11-16T16:17:58.126Z,3.40
2017-11-16T16:20:25.668Z,3.50
2017-11-16T16:22:53.200Z,3.40
2017-11-16T16:25:20.751Z,3.50
2017-11-16T16:27:48.284Z,3.50
2017-11-16T16:30:16.602Z,3.50
2017-11-16T16:32:44.135Z,3.50
2017-11-16T16:35:11.692Z,3.50
2017-11-16T16:37:39.224Z,3.60
2017-11-16T16:40:06.779Z,3.60
2017-11-16T16:42:34.312Z,3.60
2017-11-16T16:45:01.844Z,3.60
2017-11-16T16:47:29.390Z,3.60
2017-11-16T16:49:57.679Z,3.50
2017-11-16T16:52:25.993Z,3.50
2017-11-16T16:54:53.525Z,3.50
2017-11-16T16:57:21.075Z,3.50
2017-11-16T16:59:49.360Z,3.40
2017-11-16T17:02:17.691Z,3.40
2017-11-16T17:04:45.216Z,3.40
2017-11-16T17:07:12.750Z,3.40
2017-11-16T17:09:41.059Z,3.40
2017-11-16T17:12:08.583Z,3.40
2017-11-16T17:14:36.905Z,3.50
2017-11-16T17:17:04.430Z,3.40
2017-11-16T17:19:32.750Z,3.50
2017-11-16T17:22:00.275Z,3.40
2017-11-16T17:24:28.597Z,3.40
2017-11-16T17:26:56.115Z,3.40
2017-11-16T17:29:24.450Z,3.40
2017-11-16T17:31:51.976Z,3.40
2017-11-16T17:34:19.507Z,3.40
2017-11-16T17:36:47.053Z,3.30
2017-11-16T17:39:14.578Z,3.40
2017-11-16T17:41:42.122Z,3.30
2017-11-16T17:44:09.652Z,3.30
2017-11-16T17:46:37.194Z,3.40
2017-11-16T17:49:04.716Z,3.40
2017-11-16T17:51:32.269Z,3.40
2017-11-16T17:53:59.799Z,3.40
2017-11-16T17:56:27.353Z,3.30
2017-11-16T17:58:54.871Z,3.30
2017-11-16T18:01:22.435Z,3.30
2017-11-16T18:03:49.956Z,3.30
2017-11-16T18:06:18.254Z,3.20
2017-11-16T18:08:45.797Z,3.20
2017-11-16T18:11:14.104Z,3.20
2017-11-16T18:13:41.648Z,3.20
2017-11-16T18:16:09.170Z,3.30
2017-11-16T18:18:36.719Z,3.30
2017-11-16T18:21:04.251Z,3.30
2017-11-16T18:23:31.799Z,3.40
2017-11-16T18:25:59.331Z,3.40
2017-11-16T18:28:27.682Z,3.40
2017-11-16T18:30:55.200Z,3.40
2017-11-16T18:33:22.727Z,3.40
2017-11-16T18:35:50.272Z,3.50
2017-11-16T18:38:17.801Z,3.50
2017-11-16T18:40:45.344Z,3.40
2017-11-16T18:43:12.876Z,3.40
2017-11-16T18:45:41.196Z,3.40
2017-11-16T18:48:08.718Z,3.30
2017-11-16T18:50:37.026Z,3.40
2017-11-16T18:53:04.547Z,3.30
2017-11-16T18:55:32.860Z,3.40
2017-11-16T18:58:00.389Z,3.30
2017-11-16T19:00:28.713Z,3.30
2017-11-16T19:02:56.239Z,3.30
2017-11-16T19:05:24.536Z,3.30
2017-11-16T19:07:52.092Z,3.30
2017-11-16T19:10:19.619Z,3.30
2017-11-16T19:12:47.171Z,3.30
2017-11-16T19:15:14.703Z,3.20
2017-11-16T19:17:42.249Z,3.20
2017-11-16T19:20:09.771Z,3.20
2017-11-16T19:22:38.083Z,3.30
2017-11-16T19:25:05.596Z,3.30
2017-11-16T19:27:33.937Z,3.20
2017-11-16T19:30:01.466Z,3.20
2017-11-16T19:32:28.994Z,3.20
2017-11-16T19:34:57.310Z,3.20
2017-11-16T19:37:24.835Z,3.20
2017-11-16T19:39:53.143Z,3.20
2017-11-16T19:42:20.671Z,3.10
2017-11-16T19:44:48.996Z,3.20
2017-11-16T19:47:16.527Z,3.20
2017-11-16T19:49:44.098Z,3.20
2017-11-16T19:52:11.623Z,3.20
2017-11-16T19:54:39.147Z,3.10
2017-11-16T19:57:06.704Z,3.10
2017-11-16T19:59:34.232Z,3.10
2017-11-16T20:02:01.785Z,3.10
2017-11-16T20:04:29.319Z,3.00
2017-11-16T20:06:56.864Z,3.00
2017-11-16T20:09:24.387Z,3.00
2017-11-16T20:11:51.934Z,3.00
2017-11-16T20:14:19.488Z,3.00
2017-11-16T20:16:47.029Z,3.00
2017-11-16T20:19:15.328Z,3.00
2017-11-16T20:21:42.905Z,3.00
2017-11-16T20:24:10.435Z,2.90
2017-11-16T20:26:38.744Z,3.00
2017-11-16T20:29:06.296Z,2.90
2017-11-16T20:31:33.822Z,2.90
2017-11-16T20:34:02.136Z,3.00
2017-11-16T20:36:29.673Z,3.00
2017-11-16T20:42:01.331Z,3.00
2017-11-16T20:44:34.664Z,3.00
2017-11-16T20:50:11.588Z,3.00
2017-11-16T20:52:42.735Z,3.00
2017-11-16T20:55:10.289Z,3.00
2017-11-16T20:57:37.828Z,3.00
2017-11-16T21:00:05.386Z,3.00
2017-11-16T21:02:32.920Z,3.00
2017-11-16T21:05:01.232Z,3.00
2017-11-16T21:07:28.760Z,3.00
2017-11-16T21:09:57.074Z,3.10
2017-11-16T21:12:24.602Z,3.00
2017-11-16T21:14:52.936Z,3.10
2017-11-16T21:17:20.467Z,3.10
2017-11-16T21:19:47.996Z,3.10
2017-11-16T21:22:16.304Z,3.10
2017-11-16T21:24:43.837Z,3.10
2017-11-16T21:27:12.157Z,3.10
2017-11-16T21:29:39.694Z,3.10
2017-11-16T21:32:08.011Z,3.10
2017-11-16T21:34:35.548Z,3.00
2017-11-16T21:37:03.104Z,3.10
2017-11-16T21:39:30.641Z,3.10
2017-11-16T21:41:58.979Z,3.10
2017-11-16T21:44:26.513Z,3.10
2017-11-16T21:46:54.061Z,3.10
2017-11-16T21:49:21.611Z,3.10
2017-11-16T21:51:49.907Z,3.10
2017-11-16T21:54:17.468Z,3.10
2017-11-16T21:56:45.007Z,3.00
2017-11-16T21:59:13.324Z,3.00
2017-11-16T22:01:40.855Z,3.00
2017-11-16T22:04:08.424Z,3.00
2017-11-16T22:06:35.988Z,3.10
2017-11-16T22:09:04.268Z,3.10
2017-11-16T22:11:31.815Z,3.10
2017-11-16T22:14:00.109Z,3.10
2017-11-16T22:16:27.664Z,3.10
2017-11-16T22:18:55.197Z,3.10
2017-11-16T22:21:22.743Z,3.10
2017-11-16T22:23:50.275Z,3.10
2017-11-16T22:26:17.825Z,3.00
2017-11-16T22:28:45.355Z,3.00
2017-11-16T22:31:13.681Z,3.00
2017-11-16T22:33:41.224Z,3.00
2017-11-16T22:36:08.760Z,3.00
2017-11-16T22:38:37.077Z,2.90
2017-11-16T22:41:04.608Z,2.90
2017-11-16T22:43:32.155Z,2.90
2017-11-16T22:46:00.450Z,2.90
2017-11-16T22:48:27.999Z,2.90
2017-11-16T22:50:56.289Z,2.90
2017-11-16T22:53:23.844Z,2.90
2017-11-16T22:55:51.376Z,2.90
2017-11-16T22:58:18.933Z,2.90
2017-11-16T23:00:46.478Z,2.90
2017-11-16T23:03:14.028Z,2.90
2017-11-16T23:05:41.562Z,2.90
2017-11-16T23:08:09.108Z,3.00
2017-11-16T23:10:36.644Z,3.00
2017-11-16T23:13:04.944Z,3.00
2017-11-16T23:15:33.262Z,3.00
2017-11-16T23:18:00.795Z,3.00
2017-11-16T23:20:28.354Z,3.00
2017-11-16T23:22:55.894Z,3.00
2017-11-16T23:25:24.232Z,3.00
2017-11-16T23:27:51.765Z,3.00
2017-11-16T23:30:19.323Z,2.90
2017-11-16T23:32:46.856Z,3.00
2017-11-16T23:35:15.166Z,2.90
2017-11-16T23:37:42.695Z,2.90
2017-11-16T23:40:11.013Z,3.00
2017-11-16T23:42:38.552Z,3.00
2017-11-16T23:45:06.865Z,2.90
2017-11-16T23:47:34.386Z,2.90
2017-11-16T23:50:02.707Z,3.00
2017-11-16T23:52:30.243Z,3.00
2017-11-16T23:54:57.795Z,3.00
2017-11-16T23:57:25.323Z,3.00
2017-11-16T23:59:52.880Z,3.00
